createdAt,value
2023-01-13T00:00:16.694Z,7.54
2023-01-13T00:02:43.687Z,7.54
2023-01-13T00:05:11.494Z,7.57
2023-01-13T00:07:40.228Z,7.57
2023-01-13T00:10:11.314Z,7.46
2023-01-13T00:12:44.850Z,7.39
2023-01-13T00:15:12.001Z,7.36
2023-01-13T00:17:39.057Z,7.31
2023-01-13T00:20:07.214Z,7.36
2023-01-13T00:22:35.206Z,7.37
2023-01-13T00:25:04.292Z,7.32
2023-01-13T00:27:31.730Z,7.35
2023-01-13T00:29:59.254Z,7.36
2023-01-13T00:32:26.241Z,7.32
2023-01-13T00:34:53.446Z,7.36
2023-01-13T00:37:20.624Z,7.36
2023-01-13T00:39:48.049Z,7.36
2023-01-13T00:42:33.662Z,7.33
2023-01-13T00:45:00.567Z,7.29
2023-01-13T00:47:27.477Z,7.29
2023-01-13T00:49:54.530Z,7.24
2023-01-13T00:52:21.517Z,7.19
2023-01-13T00:54:49.047Z,7.14
2023-01-13T00:57:16.003Z,7.14
2023-01-13T00:59:43.055Z,7.20
2023-01-13T01:02:10.114Z,7.23
2023-01-13T01:04:37.109Z,7.22
2023-01-13T01:07:04.074Z,7.16
2023-01-13T01:09:33.572Z,7.14
2023-01-13T01:12:01.333Z,7.13
2023-01-13T01:14:28.368Z,7.14
2023-01-13T01:16:55.334Z,7.13
2023-01-13T01:19:22.449Z,7.10
2023-01-13T01:21:49.974Z,7.10
2023-01-13T01:24:18.453Z,7.11
2023-01-13T01:26:45.366Z,7.08
2023-01-13T01:29:14.685Z,7.10
2023-01-13T01:31:41.644Z,7.11
2023-01-13T01:34:08.775Z,7.06
2023-01-13T01:36:36.729Z,7.05
2023-01-13T01:39:04.693Z,7.06
2023-01-13T01:41:33.601Z,7.08
2023-01-13T01:44:38.318Z,7.05
2023-01-13T01:47:05.302Z,7.05
2023-01-13T01:49:35.547Z,7.05
2023-01-13T01:52:11.432Z,7.07
2023-01-13T01:54:48.335Z,7.10
2023-01-13T01:57:24.951Z,7.15
2023-01-13T01:59:52.081Z,7.26
2023-01-13T02:02:19.852Z,7.37
2023-01-13T02:04:51.544Z,7.45
2023-01-13T02:07:22.686Z,7.46
2023-01-13T02:09:50.008Z,7.44
2023-01-13T02:12:32.538Z,7.39
2023-01-13T02:15:23.056Z,7.43
2023-01-13T02:18:12.239Z,7.40
2023-01-13T02:21:05.036Z,7.44
2023-01-13T02:24:38.627Z,7.45
2023-01-13T02:27:14.429Z,7.38
2023-01-13T02:30:23.895Z,7.42
2023-01-13T02:32:56.706Z,7.48
2023-01-13T02:35:40.055Z,7.52
2023-01-13T02:38:10.976Z,7.51
2023-01-13T02:40:49.580Z,7.52
2023-01-13T02:43:51.368Z,7.61
2023-01-13T02:46:27.920Z,7.68
2023-01-13T02:48:58.026Z,7.65
2023-01-13T02:51:28.577Z,7.73
2023-01-13T02:54:02.294Z,7.73
2023-01-13T02:56:30.376Z,7.73
2023-01-13T02:58:59.728Z,7.76
2023-01-13T03:01:27.299Z,7.83
2023-01-13T03:03:54.386Z,7.87
2023-01-13T03:06:40.678Z,7.91
2023-01-13T03:09:18.485Z,7.96
2023-01-13T03:12:10.391Z,7.95
2023-01-13T03:14:52.053Z,7.99
2023-01-13T03:17:32.079Z,8.03
2023-01-13T03:20:06.998Z,8.05
2023-01-13T03:22:53.265Z,8.05
2023-01-13T03:25:28.647Z,8.05
2023-01-13T03:28:07.005Z,8.02
2023-01-13T03:30:44.838Z,7.97
2023-01-13T03:33:36.469Z,7.87
2023-01-13T03:36:08.682Z,7.78
2023-01-13T03:38:44.047Z,7.71
2023-01-13T03:41:19.511Z,7.64
2023-01-13T03:44:12.911Z,7.56
2023-01-13T03:46:52.303Z,7.52
2023-01-13T03:49:24.083Z,7.47
2023-01-13T03:51:57.233Z,7.43
2023-01-13T03:54:30.460Z,7.38
2023-01-13T03:57:02.707Z,7.37
2023-01-13T03:59:39.066Z,7.38
2023-01-13T04:02:31.637Z,7.40
2023-01-13T04:05:01.490Z,7.41
2023-01-13T04:07:46.825Z,7.42
2023-01-13T04:10:20.043Z,7.55
2023-01-13T04:13:16.524Z,7.61
2023-01-13T04:15:46.246Z,7.68
2023-01-13T04:18:14.922Z,7.71
2023-01-13T04:20:43.478Z,7.71
2023-01-13T04:23:11.005Z,7.73
2023-01-13T04:25:38.020Z,7.80
2023-01-13T04:28:05.303Z,7.85
2023-01-13T04:30:32.721Z,7.91
2023-01-13T04:32:59.575Z,7.92
2023-01-13T04:35:26.412Z,7.94
2023-01-13T04:37:53.404Z,7.96
2023-01-13T04:40:20.403Z,7.96
2023-01-13T04:42:47.473Z,8.01
2023-01-13T04:45:15.224Z,8.04
2023-01-13T04:47:42.063Z,8.06
2023-01-13T04:50:10.377Z,8.05
2023-01-13T04:52:38.474Z,8.06
2023-01-13T04:55:06.362Z,8.06
2023-01-13T04:57:35.021Z,8.06
2023-01-13T05:00:02.233Z,8.08
2023-01-13T05:02:29.114Z,8.10
2023-01-13T05:04:56.036Z,8.09
2023-01-13T05:07:23.015Z,8.11
2023-01-13T05:09:50.041Z,8.15
2023-01-13T05:12:35.726Z,8.13
2023-01-13T05:15:21.609Z,8.14
2023-01-13T05:17:50.076Z,8.11
2023-01-13T05:20:19.037Z,8.09
2023-01-13T05:23:04.722Z,8.10
2023-01-13T05:25:31.751Z,8.07
2023-01-13T05:27:59.991Z,8.07
2023-01-13T05:30:30.361Z,8.09
2023-01-13T05:32:57.354Z,8.11
2023-01-13T05:35:24.473Z,8.12
2023-01-13T05:37:51.702Z,8.13
2023-01-13T05:40:38.634Z,8.12
2023-01-13T05:43:20.814Z,8.11
2023-01-13T05:45:49.715Z,8.10
2023-01-13T05:48:18.422Z,8.10
2023-01-13T05:50:46.374Z,8.09
2023-01-13T05:53:13.862Z,8.11
2023-01-13T05:55:41.274Z,8.12
2023-01-13T05:58:09.633Z,8.11
2023-01-13T06:00:36.708Z,8.05
2023-01-13T06:03:04.572Z,7.92
2023-01-13T06:05:32.656Z,7.78
2023-01-13T06:08:00.950Z,7.78
2023-01-13T06:10:28.822Z,7.82
2023-01-13T06:12:56.563Z,7.88
2023-01-13T06:15:23.985Z,7.89
2023-01-13T06:17:50.832Z,7.89
2023-01-13T06:20:18.312Z,7.89
2023-01-13T06:22:51.144Z,7.86
2023-01-13T06:25:39.754Z,7.85
2023-01-13T06:28:06.712Z,7.86
2023-01-13T06:30:39.987Z,7.88
2023-01-13T06:33:12.734Z,7.92
2023-01-13T06:35:43.904Z,7.94
2023-01-13T06:38:16.019Z,7.93
2023-01-13T06:40:43.846Z,7.90
2023-01-13T06:43:17.641Z,7.85
2023-01-13T06:45:52.424Z,7.80
2023-01-13T06:48:35.814Z,7.75
2023-01-13T06:51:05.085Z,7.67
2023-01-13T06:53:32.035Z,7.57
2023-01-13T06:55:59.524Z,7.51
2023-01-13T06:58:26.443Z,7.44
2023-01-13T07:00:53.745Z,7.42
2023-01-13T07:03:20.841Z,7.34
2023-01-13T07:05:55.726Z,7.34
2023-01-13T07:08:24.125Z,7.36
2023-01-13T07:10:51.488Z,7.36
2023-01-13T07:13:38.219Z,7.37
2023-01-13T07:16:07.479Z,7.39
2023-01-13T07:18:35.370Z,7.39
2023-01-13T07:21:06.119Z,7.41
2023-01-13T07:23:36.074Z,7.43
2023-01-13T07:26:03.642Z,7.45
2023-01-13T07:28:31.828Z,7.50
2023-01-13T07:30:59.174Z,7.51
2023-01-13T07:33:26.237Z,7.52
2023-01-13T07:36:05.393Z,7.53
2023-01-13T07:38:33.920Z,7.58
2023-01-13T07:41:20.744Z,7.61
2023-01-13T07:43:49.588Z,7.63
2023-01-13T07:46:17.346Z,7.66
2023-01-13T07:48:47.016Z,7.67
2023-01-13T07:51:14.760Z,7.71
2023-01-13T07:53:41.623Z,7.76
2023-01-13T07:56:09.301Z,7.78
2023-01-13T07:58:37.250Z,7.83
2023-01-13T08:01:09.329Z,7.88
2023-01-13T08:03:36.404Z,7.89
2023-01-13T08:06:03.426Z,7.91
2023-01-13T08:08:30.493Z,7.94
2023-01-13T08:11:01.711Z,7.95
2023-01-13T08:13:29.160Z,7.97
2023-01-13T08:16:01.924Z,8.01
2023-01-13T08:18:29.626Z,8.00
2023-01-13T08:20:56.454Z,8.03
2023-01-13T08:23:23.685Z,8.03
2023-01-13T08:25:50.684Z,8.04
2023-01-13T08:28:18.414Z,8.02
2023-01-13T08:30:45.690Z,7.99
2023-01-13T08:33:13.353Z,7.94
2023-01-13T08:35:41.597Z,7.91
2023-01-13T08:38:09.304Z,7.89
2023-01-13T08:40:36.821Z,7.85
2023-01-13T08:43:03.908Z,7.84
2023-01-13T08:45:31.025Z,7.78
2023-01-13T08:47:58.064Z,7.67
2023-01-13T08:50:25.077Z,7.56
2023-01-13T08:52:52.050Z,7.49
2023-01-13T08:55:19.928Z,7.43
2023-01-13T08:57:46.919Z,7.43
2023-01-13T09:00:14.712Z,7.41
2023-01-13T09:02:41.634Z,7.38
2023-01-13T09:05:10.473Z,7.37
2023-01-13T09:07:38.557Z,7.40
2023-01-13T09:10:07.822Z,7.41
2023-01-13T09:12:53.303Z,7.42
2023-01-13T09:15:21.600Z,7.46
2023-01-13T09:17:48.698Z,7.40
2023-01-13T09:20:16.106Z,7.37
2023-01-13T09:22:43.069Z,7.35
2023-01-13T09:25:10.391Z,7.36
2023-01-13T09:27:37.355Z,7.38
2023-01-13T09:30:05.343Z,7.39
2023-01-13T09:32:32.877Z,7.39
2023-01-13T09:35:03.084Z,7.41
2023-01-13T09:37:34.388Z,7.44
2023-01-13T09:40:02.691Z,7.45
2023-01-13T09:42:54.018Z,7.46
2023-01-13T09:45:23.295Z,7.47
2023-01-13T09:48:13.091Z,7.57
2023-01-13T09:50:58.801Z,7.62
2023-01-13T09:53:30.547Z,7.72
2023-01-13T09:55:57.539Z,7.86
2023-01-13T09:58:25.306Z,7.93
2023-01-13T10:01:20.242Z,8.02
2023-01-13T10:03:49.964Z,8.05
2023-01-13T10:06:50.189Z,8.08
2023-01-13T10:09:27.058Z,8.07
2023-01-13T10:12:16.727Z,8.10
2023-01-13T10:14:54.562Z,8.15
2023-01-13T10:17:28.361Z,8.15
2023-01-13T10:20:04.282Z,8.12
2023-01-13T10:22:42.191Z,8.12
2023-01-13T10:25:32.485Z,8.18
2023-01-13T10:28:08.728Z,8.28
2023-01-13T10:30:40.362Z,8.32
2023-01-13T10:33:28.179Z,8.37
2023-01-13T10:36:02.853Z,8.38
2023-01-13T10:38:35.779Z,8.37
2023-01-13T10:41:06.515Z,8.37
2023-01-13T10:43:33.412Z,8.38
2023-01-13T10:46:11.172Z,8.43
2023-01-13T10:48:42.276Z,8.47
2023-01-13T10:51:22.140Z,8.46
2023-01-13T10:53:53.549Z,8.42
2023-01-13T10:56:22.040Z,8.50
2023-01-13T10:58:50.077Z,8.56
2023-01-13T11:01:26.353Z,8.60
2023-01-13T11:03:54.900Z,8.58
2023-01-13T11:06:26.180Z,8.55
2023-01-13T11:08:55.703Z,8.57
2023-01-13T11:11:55.985Z,8.66
2023-01-13T11:14:41.767Z,8.70
2023-01-13T11:17:23.985Z,8.66
2023-01-13T11:19:58.568Z,8.69
2023-01-13T11:22:40.095Z,8.76
2023-01-13T11:25:14.090Z,8.82
2023-01-13T11:27:48.897Z,8.89
2023-01-13T11:30:37.053Z,8.93
2023-01-13T11:33:10.035Z,8.80
2023-01-13T11:36:20.617Z,8.65
2023-01-13T11:38:55.056Z,8.72
2023-01-13T11:42:13.969Z,8.81
2023-01-13T11:45:05.380Z,8.82
2023-01-13T11:47:35.135Z,8.80
2023-01-13T11:50:03.173Z,8.81
2023-01-13T11:52:49.578Z,8.83
2023-01-13T11:55:45.679Z,8.92
2023-01-13T11:58:54.169Z,8.93
2023-01-13T12:01:33.411Z,9.04
2023-01-13T12:04:20.619Z,9.09
2023-01-13T12:06:58.963Z,9.29
2023-01-13T12:09:45.935Z,9.42
2023-01-13T12:12:23.472Z,9.45
2023-01-13T12:15:21.457Z,9.49
2023-01-13T12:18:25.664Z,9.36
2023-01-13T12:21:19.139Z,9.22
2023-01-13T12:24:09.511Z,9.02
2023-01-13T12:26:43.768Z,8.94
2023-01-13T12:29:10.609Z,8.93
2023-01-13T12:31:40.131Z,8.94
2023-01-13T12:34:07.030Z,8.94
2023-01-13T12:36:56.208Z,9.07
2023-01-13T12:39:57.897Z,9.21
2023-01-13T12:42:50.705Z,9.27
2023-01-13T12:45:32.057Z,9.18
2023-01-13T12:48:00.713Z,9.10
2023-01-13T12:50:29.309Z,9.07
2023-01-13T12:52:56.167Z,9.05
2023-01-13T12:55:24.931Z,8.95
2023-01-13T12:58:10.136Z,8.91
2023-01-13T13:01:06.951Z,9.02
2023-01-13T13:03:35.430Z,9.12
2023-01-13T13:06:19.417Z,9.07
2023-01-13T13:09:21.417Z,9.00
2023-01-13T13:11:58.726Z,8.85
2023-01-13T13:14:57.576Z,8.78
2023-01-13T13:17:31.994Z,8.66
2023-01-13T13:20:00.267Z,8.61
2023-01-13T13:22:27.102Z,8.63
2023-01-13T13:25:00.180Z,8.67
2023-01-13T13:28:06.300Z,8.72
2023-01-13T13:30:39.900Z,8.76
2023-01-13T13:33:25.014Z,8.84
2023-01-13T13:36:27.719Z,8.90
2023-01-13T13:39:42.244Z,9.00
2023-01-13T13:42:44.211Z,8.96
2023-01-13T13:45:40.086Z,8.88
2023-01-13T13:48:31.260Z,8.81
2023-01-13T13:51:02.941Z,8.79
2023-01-13T13:53:40.317Z,8.83
2023-01-13T13:56:21.822Z,8.80
2023-01-13T13:58:50.778Z,8.83
2023-01-13T14:01:29.560Z,8.80
2023-01-13T14:04:05.652Z,8.75
2023-01-13T14:06:32.958Z,8.64
2023-01-13T14:08:59.899Z,8.58
2023-01-13T14:11:33.532Z,8.56
2023-01-13T14:14:05.776Z,8.60
2023-01-13T14:16:36.287Z,8.68
2023-01-13T14:19:03.690Z,8.74
2023-01-13T14:21:31.675Z,8.78
2023-01-13T14:24:11.804Z,8.90
2023-01-13T14:26:39.395Z,8.95
2023-01-13T14:29:06.987Z,9.00
2023-01-13T14:31:34.761Z,9.02
2023-01-13T14:34:32.017Z,9.03
2023-01-13T14:36:51.591Z,9.03
2023-01-13T14:39:19.200Z,8.96
2023-01-13T14:41:48.895Z,8.97
2023-01-13T14:44:28.568Z,9.05
2023-01-13T14:46:58.512Z,9.18
2023-01-13T14:49:37.446Z,9.10
2023-01-13T14:52:25.822Z,9.01
2023-01-13T14:54:54.930Z,8.92
2023-01-13T14:57:31.970Z,8.83
2023-01-13T15:00:14.185Z,8.75
2023-01-13T15:02:44.954Z,8.74
2023-01-13T15:05:19.258Z,8.74
2023-01-13T15:07:50.902Z,8.69
2023-01-13T15:10:20.378Z,8.67
2023-01-13T15:12:50.806Z,8.64
2023-01-13T15:15:27.915Z,8.61
2023-01-13T15:17:54.850Z,8.65
2023-01-13T15:20:24.122Z,8.70
2023-01-13T15:22:52.485Z,8.74
2023-01-13T15:25:20.263Z,8.77
2023-01-13T15:27:51.066Z,8.71
2023-01-13T15:30:26.363Z,8.64
2023-01-13T15:32:55.342Z,8.63
2023-01-13T15:35:23.990Z,8.63
2023-01-13T15:37:51.781Z,8.67
2023-01-13T15:40:29.845Z,8.66
2023-01-13T15:43:15.424Z,8.64
2023-01-13T15:46:01.954Z,8.63
2023-01-13T15:48:33.158Z,8.59
2023-01-13T15:51:02.702Z,8.54
2023-01-13T15:53:30.769Z,8.59
2023-01-13T15:55:59.183Z,8.50
2023-01-13T15:58:28.442Z,8.43
2023-01-13T16:00:55.856Z,8.35
2023-01-13T16:03:23.038Z,8.25
2023-01-13T16:05:50.020Z,8.22
2023-01-13T16:08:23.223Z,8.22
2023-01-13T16:10:50.828Z,8.29
2023-01-13T16:13:18.794Z,8.32
2023-01-13T16:15:49.368Z,8.31
2023-01-13T16:18:21.842Z,8.23
2023-01-13T16:20:53.160Z,8.14
2023-01-13T16:23:20.401Z,8.10
2023-01-13T16:25:47.954Z,8.12
2023-01-13T16:28:24.144Z,8.08
2023-01-13T16:30:51.913Z,7.99
2023-01-13T16:33:19.181Z,7.93
2023-01-13T16:36:10.842Z,7.89
2023-01-13T16:38:33.361Z,7.87
2023-01-13T16:41:00.677Z,7.97
2023-01-13T16:43:27.849Z,7.94
2023-01-13T16:45:55.138Z,7.85
2023-01-13T16:48:23.051Z,7.67
2023-01-13T16:50:50.010Z,7.58
2023-01-13T16:53:17.110Z,7.60
2023-01-13T16:55:45.173Z,7.69
2023-01-13T16:58:20.795Z,7.64
2023-01-13T17:00:48.331Z,7.66
2023-01-13T17:03:16.615Z,7.71
2023-01-13T17:05:46.970Z,7.74
2023-01-13T17:08:18.997Z,7.76
2023-01-13T17:10:46.879Z,7.85
2023-01-13T17:13:16.743Z,7.98
2023-01-13T17:15:46.047Z,7.97
2023-01-13T17:18:13.632Z,7.90
2023-01-13T17:20:41.347Z,7.90
2023-01-13T17:23:08.615Z,7.91
2023-01-13T17:25:35.667Z,7.98
2023-01-13T17:28:02.853Z,7.95
2023-01-13T17:30:30.123Z,7.99
2023-01-13T17:32:57.007Z,8.03
2023-01-13T17:35:24.949Z,7.98
2023-01-13T17:37:53.563Z,7.97
2023-01-13T17:40:21.002Z,7.96
2023-01-13T17:42:48.114Z,7.90
2023-01-13T17:45:16.583Z,7.93
2023-01-13T17:47:43.688Z,7.97
2023-01-13T17:50:11.146Z,7.94
2023-01-13T17:52:38.452Z,7.95
2023-01-13T17:55:05.854Z,8.01
2023-01-13T17:57:34.505Z,8.07
2023-01-13T18:00:01.765Z,8.09
2023-01-13T18:02:39.243Z,8.21
2023-01-13T18:05:06.597Z,8.25
2023-01-13T18:07:33.503Z,8.26
2023-01-13T18:10:00.469Z,8.27
2023-01-13T18:12:27.507Z,8.35
2023-01-13T18:14:54.403Z,8.30
2023-01-13T18:17:21.584Z,8.28
2023-01-13T18:20:08.437Z,8.24
2023-01-13T18:22:53.842Z,8.31
2023-01-13T18:25:39.578Z,8.28
2023-01-13T18:28:06.511Z,8.25
2023-01-13T18:30:33.441Z,8.24
2023-01-13T18:33:00.543Z,8.23
2023-01-13T18:35:27.651Z,8.30
2023-01-13T18:37:54.782Z,8.28
2023-01-13T18:40:22.017Z,8.24
2023-01-13T18:42:53.814Z,8.23
2023-01-13T18:45:30.179Z,8.19
2023-01-13T18:48:00.482Z,8.21
2023-01-13T18:50:28.376Z,8.18
2023-01-13T18:52:56.007Z,8.09
2023-01-13T18:55:23.826Z,8.01
2023-01-13T18:57:51.472Z,8.06
2023-01-13T19:00:20.453Z,8.01
2023-01-13T19:02:48.538Z,8.03
2023-01-13T19:05:15.718Z,8.07
2023-01-13T19:07:46.362Z,8.08
2023-01-13T19:10:13.389Z,8.10
2023-01-13T19:12:40.559Z,8.15
2023-01-13T19:15:08.906Z,8.19
2023-01-13T19:17:36.092Z,8.20
2023-01-13T19:20:05.427Z,8.24
2023-01-13T19:22:34.346Z,8.27
2023-01-13T19:25:03.080Z,8.29
2023-01-13T19:27:31.041Z,7.80
2023-01-13T19:30:00.656Z,7.25
2023-01-13T19:32:30.733Z,6.91
2023-01-13T19:34:59.791Z,6.79
2023-01-13T19:37:31.717Z,6.77
2023-01-13T19:39:59.921Z,6.76
2023-01-13T19:42:46.321Z,6.72
2023-01-13T19:45:28.261Z,6.68
2023-01-13T19:47:57.452Z,6.69
2023-01-13T19:50:25.057Z,6.65
2023-01-13T19:52:52.128Z,6.66
2023-01-13T19:55:20.228Z,6.68
2023-01-13T19:57:47.993Z,6.65
2023-01-13T20:00:20.610Z,6.64
2023-01-13T20:02:49.839Z,6.65
2023-01-13T20:05:22.120Z,6.56
2023-01-13T20:07:50.861Z,6.46
2023-01-13T20:10:20.575Z,6.44
2023-01-13T20:12:48.294Z,6.51
2023-01-13T20:15:15.622Z,6.63
2023-01-13T20:17:42.785Z,6.77
2023-01-13T20:20:12.058Z,6.88
2023-01-13T20:22:40.073Z,6.93
2023-01-13T20:25:09.422Z,6.97
2023-01-13T20:27:36.571Z,7.02
2023-01-13T20:30:05.566Z,7.08
2023-01-13T20:32:32.762Z,7.16
2023-01-13T20:34:59.690Z,7.18
2023-01-13T20:37:27.082Z,7.23
2023-01-13T20:39:55.418Z,7.27
2023-01-13T20:42:32.230Z,7.31
2023-01-13T20:45:00.634Z,7.33
2023-01-13T20:47:29.298Z,7.34
2023-01-13T20:49:56.624Z,7.33
2023-01-13T20:52:23.970Z,7.29
2023-01-13T20:54:50.890Z,7.27
2023-01-13T20:57:18.181Z,7.25
2023-01-13T20:59:45.686Z,7.21
2023-01-13T21:02:15.297Z,7.16
2023-01-13T21:04:42.452Z,7.15
2023-01-13T21:07:10.337Z,7.14
2023-01-13T21:09:37.458Z,7.12
2023-01-13T21:12:24.722Z,7.12
2023-01-13T21:15:10.524Z,7.13
2023-01-13T21:17:56.380Z,7.18
2023-01-13T21:20:23.577Z,7.19
2023-01-13T21:22:50.419Z,7.15
2023-01-13T21:25:19.276Z,7.22
2023-01-13T21:27:46.567Z,7.30
2023-01-13T21:30:15.664Z,7.38
2023-01-13T21:32:44.368Z,7.45
2023-01-13T21:35:12.323Z,7.47
2023-01-13T21:37:42.220Z,7.46
2023-01-13T21:40:12.367Z,7.47
2023-01-13T21:42:58.229Z,7.46
2023-01-13T21:45:43.895Z,7.41
2023-01-13T21:48:11.199Z,7.35
2023-01-13T21:50:38.555Z,7.24
2023-01-13T21:53:07.423Z,7.15
2023-01-13T21:55:36.671Z,7.06
2023-01-13T21:58:12.878Z,7.00
2023-01-13T22:00:42.520Z,6.94
2023-01-13T22:03:11.508Z,6.85
2023-01-13T22:05:39.036Z,6.79
2023-01-13T22:08:06.702Z,6.72
2023-01-13T22:10:34.374Z,6.73
2023-01-13T22:13:22.476Z,6.75
2023-01-13T22:15:49.653Z,6.79
2023-01-13T22:18:18.752Z,6.87
2023-01-13T22:20:46.246Z,7.00
2023-01-13T22:23:13.616Z,7.09
2023-01-13T22:25:40.592Z,7.22
2023-01-13T22:28:09.555Z,7.29
2023-01-13T22:30:36.850Z,7.34
2023-01-13T22:33:03.915Z,7.37
2023-01-13T22:35:30.978Z,7.45
2023-01-13T22:37:58.753Z,7.49
2023-01-13T22:40:25.993Z,7.49
2023-01-13T22:42:52.867Z,7.51
2023-01-13T22:45:20.006Z,7.52
2023-01-13T22:47:48.254Z,7.50
2023-01-13T22:50:18.280Z,7.44
2023-01-13T22:52:45.317Z,7.41
2023-01-13T22:55:12.566Z,7.41
2023-01-13T22:57:47.718Z,7.44
2023-01-13T23:00:19.554Z,7.50
2023-01-13T23:02:46.840Z,7.51
2023-01-13T23:05:14.020Z,7.53
2023-01-13T23:07:41.437Z,7.58
2023-01-13T23:10:08.915Z,7.63
2023-01-13T23:12:35.811Z,7.67
2023-01-13T23:15:03.529Z,7.72
2023-01-13T23:17:30.896Z,7.73
2023-01-13T23:19:57.756Z,7.74
2023-01-13T23:22:25.291Z,7.72
2023-01-13T23:24:52.141Z,7.76
2023-01-13T23:27:19.781Z,7.80
2023-01-13T23:29:46.764Z,7.79
2023-01-13T23:32:13.909Z,7.79
2023-01-13T23:34:40.804Z,7.75
2023-01-13T23:37:07.818Z,7.66
2023-01-13T23:39:34.727Z,7.55
2023-01-13T23:42:01.702Z,7.43
2023-01-13T23:44:29.578Z,7.28
2023-01-13T23:46:56.520Z,7.16
2023-01-13T23:49:23.487Z,7.10
2023-01-13T23:51:51.554Z,7.03
2023-01-13T23:54:19.991Z,7.02
2023-01-13T23:56:50.557Z,6.93
2023-01-13T23:59:17.541Z,6.90
